Time;durP1;ratioP1;P1;durP2;ratioP2;P2;SDS_P1;SDS_P2;PMS_P1;PMS_P2;Temp;Humidity;BMP_temperature;BMP_pressure;BME280_temperature;BME280_humidity;BME280_pressure;Samples;Min_cycle;Max_cycle;Signal;HPM_P1;HPM_P2
2023/12/28 10:54:38;;;;;;;2.00;1.33;;;;;;;11.37;100.00;99066.28;5109324;28;20638;-88
2023/12/28 10:57:13;;;;;;;1.40;1.30;;;;;;;11.91;100.00;99061.09;5091555;28;38630;-87
2023/12/28 10:59:49;;;;;;;1.60;1.40;;;;;;;12.32;100.00;99061.03;5091765;28;40948;-88
2023/12/28 11:02:21;;;;;;;2.23;1.60;;;;;;;12.88;97.71;99077.63;5091141;28;41704;-87
2023/12/28 11:04:50;;;;;;;2.03;1.40;;;;;;;13.15;92.98;99073.09;5091442;28;41276;-86
2023/12/28 11:07:19;;;;;;;1.93;1.47;;;;;;;13.36;90.65;99064.56;5091091;28;40099;-90
2023/12/28 11:09:49;;;;;;;1.70;1.07;;;;;;;13.46;88.11;99071.81;5091116;28;41691;-91
2023/12/28 11:12:18;;;;;;;1.67;1.33;;;;;;;13.56;88.47;99054.22;5090893;28;43163;-87
2023/12/28 11:14:48;;;;;;;3.27;1.83;;;;;;;13.69;86.13;99056.84;5108181;28;42345;-88
2023/12/28 11:17:20;;;;;;;1.80;1.53;;;;;;;13.87;83.36;99071.47;5091841;28;39021;-88
2023/12/28 11:19:49;;;;;;;2.27;1.97;;;;;;;14.01;82.45;99071.34;5090860;28;42180;-87
2023/12/28 11:22:17;;;;;;;2.80;2.07;;;;;;;14.06;83.73;99070.16;5107595;28;42798;-87
2023/12/28 11:24:45;;;;;;;1.67;1.57;;;;;;;13.98;82.66;99068.88;5125084;27;43207;-89
2023/12/28 11:27:14;;;;;;;2.37;1.47;;;;;;;13.75;82.08;99056.41;5124756;27;38940;-86
2023/12/28 11:29:44;;;;;;;2.53;1.40;;;;;;;13.71;82.41;99049.63;5090685;28;41241;-86
2023/12/28 11:32:12;;;;;;;2.17;1.60;;;;;;;13.64;82.84;99053.66;5090295;28;43136;-89
2023/12/28 11:34:39;;;;;;;1.77;1.60;;;;;;;13.57;82.19;99052.41;5090941;28;41285;-88
2023/12/28 11:37:09;;;;;;;1.67;1.40;;;;;;;13.55;82.28;99059.66;5107963;28;39911;-87
2023/12/28 11:39:39;;;;;;;1.87;1.30;;;;;;;13.51;82.48;99053.69;5091021;28;42316;-87
2023/12/28 11:42:09;;;;;;;1.70;1.30;;;;;;;13.57;81.99;99057.75;5090660;28;43853;-88
2023/12/28 11:44:41;;;;;;;1.60;1.50;;;;;;;13.48;82.23;99045.91;5125200;27;42887;-88
2023/12/28 11:47:12;;;;;;;1.63;1.53;;;;;;;13.29;82.52;99027.78;5107556;28;39638;-88
2023/12/28 11:49:41;;;;;;;1.40;1.30;;;;;;;13.28;82.86;99039.38;5090579;28;41227;-89
2023/12/28 11:52:11;;;;;;;1.47;1.30;;;;;;;13.23;83.19;99045.94;5089724;28;41818;-87
2023/12/28 11:54:38;;;;;;;2.33;1.43;;;;;;;13.17;83.42;99030.44;5090465;28;42816;-87
2023/12/28 11:57:06;;;;;;;1.50;1.40;;;;;;;13.23;83.67;99038.81;5090293;28;40984;-86
2023/12/28 11:59:34;;;;;;;1.60;1.50;;;;;;;13.13;83.84;99015.63;5107329;28;43061;-87
2023/12/28 12:02:07;;;;;;;1.50;1.40;;;;;;;13.10;84.22;99032.66;5089995;28;43755;-88
2023/12/28 12:04:35;;;;;;;2.27;1.73;;;;;;;13.10;84.18;99029.16;5083542;28;42693;-88
2023/12/28 12:07:04;;;;;;;2.57;1.60;;;;;;;13.08;84.26;99013.31;5093294;28;40173;-87
2023/12/28 12:09:34;;;;;;;1.83;1.67;;;;;;;13.05;84.16;99013.50;5076662;28;40593;-89
2023/12/28 12:12:02;;;;;;;1.97;1.70;;;;;;;13.05;84.07;99005.53;5076588;28;42697;-88
2023/12/28 12:14:31;;;;;;;1.57;1.47;;;;;;;13.08;84.07;99007.97;5076761;28;42776;-87
2023/12/28 12:16:59;;;;;;;2.33;1.50;;;;;;;13.19;84.46;99021.41;5093599;28;40224;-88
2023/12/28 12:19:29;;;;;;;1.43;1.33;;;;;;;13.23;84.28;99020.22;5076970;28;41625;-87
2023/12/28 12:21:57;;;;;;;1.77;1.50;;;;;;;13.05;84.12;98986.94;5076429;28;43058;-88
2023/12/28 12:24:25;;;;;;;2.90;1.40;;;;;;;13.10;84.07;98990.13;5076775;28;41529;-86
2023/12/28 12:26:53;;;;;;;1.70;1.37;;;;;;;13.06;84.44;98983.31;5076561;28;39504;-88
2023/12/28 12:29:21;;;;;;;2.87;1.47;;;;;;;13.09;84.75;98993.75;5076695;28;43227;-87
2023/12/28 12:31:49;;;;;;;2.17;1.37;;;;;;;13.04;84.52;98992.34;5059844;28;42998;-87
2023/12/28 12:34:18;;;;;;;1.53;1.43;;;;;;;13.01;84.46;98995.22;5076286;28;42898;-88
2023/12/28 12:36:49;;;;;;;1.57;1.33;;;;;;;13.13;84.38;99002.31;5076843;28;38934;-85
2023/12/28 12:39:16;;;;;;;1.50;1.40;;;;;;;13.11;84.21;99002.44;5076741;28;43214;-87
2023/12/28 12:41:47;;;;;;;2.23;1.70;;;;;;;12.98;84.52;98975.03;5077031;28;44364;-87
2023/12/28 12:44:16;;;;;;;2.63;1.67;;;;;;;13.09;84.11;98999.06;5110015;28;43119;-88
2023/12/28 12:46:44;;;;;;;1.93;1.70;;;;;;;12.99;84.18;98981.16;5076580;28;40350;-89
2023/12/28 12:49:12;;;;;;;1.90;1.60;;;;;;;12.94;84.25;98973.53;5075966;28;43330;-89
2023/12/28 15:30:30;;;;;;;1.00;0.90;;;;;;;9.28;100.00;98920.78;5121635;27;20921;-87
2023/12/28 15:32:58;;;;;;;0.50;0.50;;;;;;;9.65;100.00;98917.75;5071173;28;39389;-88
2023/12/28 15:35:25;;;;;;;0.60;0.60;;;;;;;9.90;100.00;98874.00;5070566;28;41107;-88
2023/12/28 15:37:54;;;;;;;1.03;0.60;;;;;;;10.64;100.00;98929.50;5071143;28;43423;-88
2023/12/28 15:40:22;;;;;;;0.67;0.67;;;;;;;10.87;100.00;98923.66;5070951;28;41556;-88
2023/12/28 15:42:51;;;;;;;0.47;0.47;;;;;;;11.17;100.00;98939.41;5071236;28;39973;-89
